Doutor Camargo, Brazil
Current Conditions -  °F | °C
As of 5:00 PM on Sunday 21 Dec 2014 (Local Time) from SBMG Reporting Station
Scattered Clouds Scattered Clouds  
Wind Chill: 88°   Ceiling: Unl
Heat Index: 93°   Visibility: 6mi
Dew Point: 70°   Wind: 23mph
Humidity: 55%   Direction: 330°NNW
Pressure: 29.68"   Gusts: 35mph
Location:  23.56°S, 52.22°W
Report Text: SBMG 211900Z 33020G30KT 9999 SCT035 FEW040TCU 31/21 Q1005
Loading
Personal Weather Stations






























Interactive Weather Map New forecast layout! Learn more

10-Day Weather Forecast

Advertisements
Track Severe Weather on mobile